sensor_id;sensor_type;location;lat;lon;timestamp;pressure;altitude;pressure_sealevel;temperature;humidity
63194;BME280;49289;51.670;5.624;2023-12-04T00:00:18;101493.84;;;7.32;70.27
63194;BME280;49289;51.670;5.624;2023-12-04T00:02:05;101488.53;;;7.09;71.25
63194;BME280;49289;51.670;5.624;2023-12-04T00:03:52;101484.28;;;7.22;70.53
63194;BME280;49289;51.670;5.624;2023-12-04T00:05:39;101476.26;;;7.15;70.50
63194;BME280;49289;51.670;5.624;2023-12-04T00:07:26;101458.45;;;6.63;71.80
63194;BME280;49289;51.670;5.624;2023-12-04T00:09:13;101477.80;;;7.09;71.76
63194;BME280;49289;51.670;5.624;2023-12-04T00:11:00;101475.66;;;7.51;70.93
63194;BME280;49289;51.670;5.624;2023-12-04T00:12:47;101470.30;;;7.56;69.73
63194;BME280;49289;51.670;5.624;2023-12-04T00:14:34;101464.31;;;7.77;69.36
63194;BME280;49289;51.670;5.624;2023-12-04T00:16:21;101463.30;;;7.78;69.01
63194;BME280;49289;51.670;5.624;2023-12-04T00:18:08;101460.73;;;7.49;69.14
63194;BME280;49289;51.670;5.624;2023-12-04T00:19:55;101459.98;;;7.53;69.34
63194;BME280;49289;51.670;5.624;2023-12-04T00:21:42;101440.00;;;7.29;69.70
63194;BME280;49289;51.670;5.624;2023-12-04T00:23:29;101427.65;;;7.36;69.36
63194;BME280;49289;51.670;5.624;2023-12-04T00:25:16;101467.30;;;7.63;69.30
63194;BME280;49289;51.670;5.624;2023-12-04T00:27:03;101439.82;;;7.41;68.73
63194;BME280;49289;51.670;5.624;2023-12-04T00:28:50;101466.44;;;7.40;69.20
63194;BME280;49289;51.670;5.624;2023-12-04T00:30:37;101466.39;;;7.48;69.48
63194;BME280;49289;51.670;5.624;2023-12-04T00:32:24;101463.89;;;7.56;69.12
63194;BME280;49289;51.670;5.624;2023-12-04T00:34:11;101461.33;;;7.74;68.91
63194;BME280;49289;51.670;5.624;2023-12-04T00:35:58;101441.70;;;7.68;68.64
63194;BME280;49289;51.670;5.624;2023-12-04T00:37:45;101432.58;;;7.20;68.73
63194;BME280;49289;51.670;5.624;2023-12-04T00:39:32;101431.39;;;7.53;68.72
63194;BME280;49289;51.670;5.624;2023-12-04T00:41:19;101433.50;;;7.69;68.35
63194;BME280;49289;51.670;5.624;2023-12-04T00:43:06;101459.73;;;7.71;68.39
63194;BME280;49289;51.670;5.624;2023-12-04T00:44:53;101457.38;;;7.57;69.16
63194;BME280;49289;51.670;5.624;2023-12-04T00:46:39;101447.47;;;7.83;68.35
63194;BME280;49289;51.670;5.624;2023-12-04T00:48:27;101449.59;;;7.85;68.03
63194;BME280;49289;51.670;5.624;2023-12-04T00:50:14;101449.87;;;7.71;68.40
63194;BME280;49289;51.670;5.624;2023-12-04T00:52:01;101443.22;;;7.74;68.26
63194;BME280;49289;51.670;5.624;2023-12-04T00:53:49;101443.25;;;8.01;67.96
63194;BME280;49289;51.670;5.624;2023-12-04T00:55:36;101450.09;;;8.05;67.72
63194;BME280;49289;51.670;5.624;2023-12-04T00:57:23;101445.85;;;7.96;67.84
63194;BME280;49289;51.670;5.624;2023-12-04T00:59:10;101437.30;;;7.87;67.79
63194;BME280;49289;51.670;5.624;2023-12-04T01:00:56;101439.73;;;7.81;68.24
63194;BME280;49289;51.670;5.624;2023-12-04T01:02:43;101433.53;;;7.49;68.37
63194;BME280;49289;51.670;5.624;2023-12-04T01:04:30;101425.72;;;7.73;68.32
63194;BME280;49289;51.670;5.624;2023-12-04T01:06:25;101424.79;;;7.66;68.14
63194;BME280;49289;51.670;5.624;2023-12-04T01:08:12;101423.23;;;7.70;68.53
63194;BME280;49289;51.670;5.624;2023-12-04T01:09:59;101383.14;;;7.54;68.18
63194;BME280;49289;51.670;5.624;2023-12-04T01:11:46;101401.95;;;7.75;67.56
63194;BME280;49289;51.670;5.624;2023-12-04T01:13:33;101415.97;;;7.54;68.31
63194;BME280;49289;51.670;5.624;2023-12-04T01:15:20;101414.34;;;7.54;67.88
63194;BME280;49289;51.670;5.624;2023-12-04T01:17:08;101414.08;;;7.73;67.92
63194;BME280;49289;51.670;5.624;2023-12-04T01:18:55;101412.08;;;7.90;67.56
63194;BME280;49289;51.670;5.624;2023-12-04T01:20:42;101410.17;;;7.92;67.37
63194;BME280;49289;51.670;5.624;2023-12-04T01:22:29;101409.85;;;7.91;67.44
63194;BME280;49289;51.670;5.624;2023-12-04T01:24:16;101416.73;;;7.93;67.21
63194;BME280;49289;51.670;5.624;2023-12-04T01:26:03;101409.59;;;7.84;67.22
63194;BME280;49289;51.670;5.624;2023-12-04T01:27:50;101408.48;;;7.90;67.09
63194;BME280;49289;51.670;5.624;2023-12-04T01:29:37;101404.43;;;7.75;67.36
63194;BME280;49289;51.670;5.624;2023-12-04T01:31:24;101400.75;;;7.80;67.51
63194;BME280;49289;51.670;5.624;2023-12-04T01:33:11;101396.68;;;7.91;67.27
63194;BME280;49289;51.670;5.624;2023-12-04T01:34:58;101403.03;;;7.89;67.20
63194;BME280;49289;51.670;5.624;2023-12-04T01:36:45;101397.16;;;7.93;67.08
63194;BME280;49289;51.670;5.624;2023-12-04T01:38:32;101396.97;;;7.98;66.86
63194;BME280;49289;51.670;5.624;2023-12-04T01:40:20;101399.97;;;8.06;66.90
63194;BME280;49289;51.670;5.624;2023-12-04T01:42:07;101399.23;;;7.88;66.81
63194;BME280;49289;51.670;5.624;2023-12-04T01:43:54;101388.91;;;7.75;66.94
63194;BME280;49289;51.670;5.624;2023-12-04T01:45:41;101388.18;;;7.69;67.13
63194;BME280;49289;51.670;5.624;2023-12-04T01:47:28;101385.86;;;7.91;66.98
63194;BME280;49289;51.670;5.624;2023-12-04T01:49:15;101390.02;;;7.74;67.25
63194;BME280;49289;51.670;5.624;2023-12-04T01:51:03;101388.78;;;7.66;67.56
63194;BME280;49289;51.670;5.624;2023-12-04T01:52:49;101387.54;;;7.58;67.70
63194;BME280;49289;51.670;5.624;2023-12-04T01:54:36;101385.77;;;7.60;67.56
63194;BME280;49289;51.670;5.624;2023-12-04T01:56:23;101365.33;;;7.79;67.39
63194;BME280;49289;51.670;5.624;2023-12-04T01:58:10;101385.00;;;7.85;67.37
63194;BME280;49289;51.670;5.624;2023-12-04T01:59:57;101383.16;;;7.66;67.31
63194;BME280;49289;51.670;5.624;2023-12-04T02:01:44;101380.72;;;7.86;67.27
63194;BME280;49289;51.670;5.624;2023-12-04T02:03:31;101369.02;;;7.86;67.29
63194;BME280;49289;51.670;5.624;2023-12-04T02:05:18;101357.97;;;7.23;66.67
63194;BME280;49289;51.670;5.624;2023-12-04T02:07:05;101373.97;;;7.60;67.40
63194;BME280;49289;51.670;5.624;2023-12-04T02:08:54;101346.63;;;7.46;67.58
63194;BME280;49289;51.670;5.624;2023-12-04T02:10:41;101365.60;;;7.70;67.09
63194;BME280;49289;51.670;5.624;2023-12-04T02:12:28;101348.27;;;7.75;66.98
63194;BME280;49289;51.670;5.624;2023-12-04T02:14:15;101340.01;;;7.78;66.87
63194;BME280;49289;51.670;5.624;2023-12-04T02:16:03;101364.17;;;7.94;66.62
63194;BME280;49289;51.670;5.624;2023-12-04T02:17:50;101356.49;;;7.88;66.56
63194;BME280;49289;51.670;5.624;2023-12-04T02:19:37;101355.94;;;7.83;66.62
63194;BME280;49289;51.670;5.624;2023-12-04T02:21:24;101348.80;;;7.91;66.36
63194;BME280;49289;51.670;5.624;2023-12-04T02:23:11;101348.40;;;7.80;66.53
63194;BME280;49289;51.670;5.624;2023-12-04T02:24:58;101321.52;;;7.79;66.42
63194;BME280;49289;51.670;5.624;2023-12-04T02:26:46;101345.82;;;7.91;66.25
63194;BME280;49289;51.670;5.624;2023-12-04T02:28:33;101341.70;;;7.60;66.72
63194;BME280;49289;51.670;5.624;2023-12-04T02:30:21;101310.36;;;7.35;67.24
63194;BME280;49289;51.670;5.624;2023-12-04T02:32:07;101334.67;;;7.92;66.79
63194;BME280;49289;51.670;5.624;2023-12-04T02:33:55;101331.72;;;7.93;66.59
63194;BME280;49289;51.670;5.624;2023-12-04T02:35:40;101327.16;;;8.06;66.24
63194;BME280;49289;51.670;5.624;2023-12-04T02:37:28;101331.69;;;7.93;65.86
63194;BME280;49289;51.670;5.624;2023-12-04T02:39:15;101326.91;;;7.79;65.81
63194;BME280;49289;51.670;5.624;2023-12-04T02:41:02;101325.59;;;8.03;65.94
63194;BME280;49289;51.670;5.624;2023-12-04T02:42:48;101317.99;;;7.88;66.12
63194;BME280;49289;51.670;5.624;2023-12-04T02:44:35;101315.27;;;8.06;65.87
63194;BME280;49289;51.670;5.624;2023-12-04T02:46:22;101306.00;;;7.76;66.11
63194;BME280;49289;51.670;5.624;2023-12-04T02:48:10;101314.34;;;7.91;66.15
63194;BME280;49289;51.670;5.624;2023-12-04T02:49:57;101304.11;;;7.88;66.29
63194;BME280;49289;51.670;5.624;2023-12-04T02:51:45;101308.67;;;8.04;66.12
63194;BME280;49289;51.670;5.624;2023-12-04T02:53:32;101292.84;;;8.05;65.60
63194;BME280;49289;51.670;5.624;2023-12-04T02:55:20;101282.17;;;8.07;65.35
63194;BME280;49289;51.670;5.624;2023-12-04T02:57:07;101306.21;;;8.01;65.57
63194;BME280;49289;51.670;5.624;2023-12-04T02:58:54;101306.77;;;8.09;65.25
63194;BME280;49289;51.670;5.624;2023-12-04T03:00:41;101302.08;;;7.71;65.59
63194;BME280;49289;51.670;5.624;2023-12-04T03:02:28;101299.31;;;7.97;65.54
63194;BME280;49289;51.670;5.624;2023-12-04T03:04:15;101299.56;;;7.93;65.56
63194;BME280;49289;51.670;5.624;2023-12-04T03:06:02;101275.98;;;7.95;65.45
63194;BME280;49289;51.670;5.624;2023-12-04T03:07:49;101293.48;;;7.93;65.62
63194;BME280;49289;51.670;5.624;2023-12-04T03:09:36;101290.30;;;7.80;65.74
63194;BME280;49289;51.670;5.624;2023-12-04T03:11:23;101274.62;;;7.15;66.64
63194;BME280;49289;51.670;5.624;2023-12-04T03:13:10;101283.31;;;7.61;66.31
63194;BME280;49289;51.670;5.624;2023-12-04T03:14:57;101255.88;;;7.67;66.35
63194;BME280;49289;51.670;5.624;2023-12-04T03:16:44;101279.31;;;7.76;65.91
63194;BME280;49289;51.670;5.624;2023-12-04T03:18:31;101274.45;;;7.85;65.83
63194;BME280;49289;51.670;5.624;2023-12-04T03:20:18;101269.97;;;7.46;66.43
63194;BME280;49289;51.670;5.624;2023-12-04T03:22:05;101273.58;;;7.42;66.24
63194;BME280;49289;51.670;5.624;2023-12-04T03:23:52;101189.36;;;6.85;66.46
63194;BME280;49289;51.670;5.624;2023-12-04T03:25:39;101260.49;;;7.70;66.13
63194;BME280;49289;51.670;5.624;2023-12-04T03:27:26;101262.52;;;7.81;65.87
63194;BME280;49289;51.670;5.624;2023-12-04T03:29:13;101265.05;;;7.62;65.85
63194;BME280;49289;51.670;5.624;2023-12-04T03:31:00;101245.28;;;7.52;65.57
63194;BME280;49289;51.670;5.624;2023-12-04T03:32:47;101239.02;;;7.27;66.06
63194;BME280;49289;51.670;5.624;2023-12-04T03:34:34;101255.00;;;7.61;66.32
63194;BME280;49289;51.670;5.624;2023-12-04T03:36:21;101251.97;;;7.70;66.03
63194;BME280;49289;51.670;5.624;2023-12-04T03:38:08;101229.77;;;7.51;65.69
63194;BME280;49289;51.670;5.624;2023-12-04T03:39:55;101223.48;;;7.55;66.14
63194;BME280;49289;51.670;5.624;2023-12-04T03:41:42;101207.95;;;7.25;66.04
63194;BME280;49289;51.670;5.624;2023-12-04T03:43:29;101238.41;;;7.42;66.31
63194;BME280;49289;51.670;5.624;2023-12-04T03:45:17;101238.02;;;7.24;66.49
63194;BME280;49289;51.670;5.624;2023-12-04T03:47:04;101235.33;;;7.04;66.88
63194;BME280;49289;51.670;5.624;2023-12-04T03:48:51;101232.88;;;7.19;66.90
63194;BME280;49289;51.670;5.624;2023-12-04T03:50:38;101215.47;;;7.14;66.71
63194;BME280;49289;51.670;5.624;2023-12-04T03:52:26;101228.94;;;6.95;67.18
63194;BME280;49289;51.670;5.624;2023-12-04T03:54:13;101230.03;;;7.06;66.98
63194;BME280;49289;51.670;5.624;2023-12-04T03:56:00;101227.60;;;6.93;67.76
63194;BME280;49289;51.670;5.624;2023-12-04T03:57:47;101219.70;;;7.09;66.94
63194;BME280;49289;51.670;5.624;2023-12-04T03:59:34;101219.73;;;7.16;67.23
63194;BME280;49289;51.670;5.624;2023-12-04T04:01:21;101214.84;;;7.28;67.00
63194;BME280;49289;51.670;5.624;2023-12-04T04:03:08;101213.72;;;7.11;66.07
63194;BME280;49289;51.670;5.624;2023-12-04T04:04:55;101204.91;;;6.82;67.67
63194;BME280;49289;51.670;5.624;2023-12-04T04:06:42;101203.53;;;6.72;67.92
63194;BME280;49289;51.670;5.624;2023-12-04T04:08:29;101191.73;;;6.88;67.81
63194;BME280;49289;51.670;5.624;2023-12-04T04:10:16;101202.84;;;6.92;67.29
63194;BME280;49289;51.670;5.624;2023-12-04T04:12:03;101201.31;;;6.91;67.67
63194;BME280;49289;51.670;5.624;2023-12-04T04:13:50;101200.43;;;7.13;67.50
63194;BME280;49289;51.670;5.624;2023-12-04T04:15:37;101184.09;;;6.73;67.26
63194;BME280;49289;51.670;5.624;2023-12-04T04:17:24;101175.86;;;6.41;67.97
63194;BME280;49289;51.670;5.624;2023-12-04T04:19:11;101199.64;;;6.85;67.84
63194;BME280;49289;51.670;5.624;2023-12-04T04:20:58;101173.27;;;6.93;67.87
63194;BME280;49289;51.670;5.624;2023-12-04T04:22:47;101188.05;;;6.79;68.28
63194;BME280;49289;51.670;5.624;2023-12-04T04:24:32;101196.41;;;6.91;67.89
63194;BME280;49289;51.670;5.624;2023-12-04T04:26:19;101190.91;;;6.69;68.52
63194;BME280;49289;51.670;5.624;2023-12-04T04:28:06;101194.17;;;6.97;67.73
63194;BME280;49289;51.670;5.624;2023-12-04T04:29:53;101151.95;;;6.49;67.96
63194;BME280;49289;51.670;5.624;2023-12-04T04:31:40;101178.94;;;7.21;67.85
63194;BME280;49289;51.670;5.624;2023-12-04T04:33:27;101178.73;;;6.43;68.37
63194;BME280;49289;51.670;5.624;2023-12-04T04:35:14;101175.39;;;6.69;69.21
63194;BME280;49289;51.670;5.624;2023-12-04T04:37:01;101174.77;;;6.71;68.36
63194;BME280;49289;51.670;5.624;2023-12-04T04:38:48;101171.36;;;6.98;67.81
63194;BME280;49289;51.670;5.624;2023-12-04T04:40:35;101170.18;;;6.76;68.31
63194;BME280;49289;51.670;5.624;2023-12-04T04:42:22;101148.67;;;6.54;68.54
63194;BME280;49289;51.670;5.624;2023-12-04T04:44:09;101171.35;;;6.99;67.31
63194;BME280;49289;51.670;5.624;2023-12-04T04:45:56;101148.41;;;6.64;67.52
63194;BME280;49289;51.670;5.624;2023-12-04T04:47:43;101165.43;;;6.53;67.46
63194;BME280;49289;51.670;5.624;2023-12-04T04:49:30;101171.09;;;7.06;67.17
63194;BME280;49289;51.670;5.624;2023-12-04T04:51:17;101169.16;;;6.92;67.27
63194;BME280;49289;51.670;5.624;2023-12-04T04:53:04;101165.36;;;6.82;67.63
63194;BME280;49289;51.670;5.624;2023-12-04T04:54:51;101160.82;;;6.67;67.17
63194;BME280;49289;51.670;5.624;2023-12-04T04:56:38;101133.80;;;6.69;67.57
63194;BME280;49289;51.670;5.624;2023-12-04T04:58:25;101148.81;;;6.90;67.22
63194;BME280;49289;51.670;5.624;2023-12-04T05:00:13;101152.17;;;6.84;66.90
63194;BME280;49289;51.670;5.624;2023-12-04T05:02:00;101155.63;;;6.24;67.89
63194;BME280;49289;51.670;5.624;2023-12-04T05:03:47;101158.78;;;6.52;68.33
63194;BME280;49289;51.670;5.624;2023-12-04T05:05:34;101158.91;;;6.87;67.72
63194;BME280;49289;51.670;5.624;2023-12-04T05:07:21;101159.27;;;6.95;66.28
63194;BME280;49289;51.670;5.624;2023-12-04T05:09:08;101161.48;;;6.80;66.40
63194;BME280;49289;51.670;5.624;2023-12-04T05:10:55;101159.37;;;6.94;66.89
63194;BME280;49289;51.670;5.624;2023-12-04T05:12:42;101163.44;;;6.63;66.75
63194;BME280;49289;51.670;5.624;2023-12-04T05:14:29;101158.95;;;6.85;67.28
63194;BME280;49289;51.670;5.624;2023-12-04T05:16:16;101132.83;;;7.02;66.82
63194;BME280;49289;51.670;5.624;2023-12-04T05:18:03;101159.17;;;6.80;66.73
63194;BME280;49289;51.670;5.624;2023-12-04T05:19:50;101155.64;;;6.65;67.30
63194;BME280;49289;51.670;5.624;2023-12-04T05:21:37;101154.11;;;6.80;66.80
63194;BME280;49289;51.670;5.624;2023-12-04T05:23:23;101149.21;;;6.74;66.33
63194;BME280;49289;51.670;5.624;2023-12-04T05:25:11;101150.34;;;7.17;66.15
63194;BME280;49289;51.670;5.624;2023-12-04T05:26:58;101123.12;;;6.86;65.71
63194;BME280;49289;51.670;5.624;2023-12-04T05:28:45;101148.69;;;6.81;65.93
63194;BME280;49289;51.670;5.624;2023-12-04T05:30:32;101144.61;;;6.49;65.73
63194;BME280;49289;51.670;5.624;2023-12-04T05:32:19;101142.56;;;6.46;66.44
63194;BME280;49289;51.670;5.624;2023-12-04T05:34:06;101138.36;;;7.00;66.45
63194;BME280;49289;51.670;5.624;2023-12-04T05:35:53;101139.74;;;7.20;65.34
63194;BME280;49289;51.670;5.624;2023-12-04T05:37:40;101127.70;;;7.04;65.39
63194;BME280;49289;51.670;5.624;2023-12-04T05:39:27;101111.73;;;6.58;66.44
63194;BME280;49289;51.670;5.624;2023-12-04T05:41:14;101130.86;;;6.18;66.37
63194;BME280;49289;51.670;5.624;2023-12-04T05:43:01;101123.80;;;6.87;66.99
63194;BME280;49289;51.670;5.624;2023-12-04T05:44:48;101119.64;;;6.96;66.12
63194;BME280;49289;51.670;5.624;2023-12-04T05:46:35;101110.89;;;6.56;66.19
63194;BME280;49289;51.670;5.624;2023-12-04T05:48:22;101118.37;;;7.01;65.96
63194;BME280;49289;51.670;5.624;2023-12-04T05:50:09;101115.19;;;6.67;65.71
63194;BME280;49289;51.670;5.624;2023-12-04T05:51:56;101116.19;;;6.89;65.81
63194;BME280;49289;51.670;5.624;2023-12-04T05:53:43;101113.16;;;7.00;65.15
63194;BME280;49289;51.670;5.624;2023-12-04T05:55:30;101114.08;;;6.73;66.06
63194;BME280;49289;51.670;5.624;2023-12-04T05:57:17;101110.50;;;6.56;66.68
63194;BME280;49289;51.670;5.624;2023-12-04T05:59:04;101098.41;;;6.57;66.83
63194;BME280;49289;51.670;5.624;2023-12-04T06:00:51;101114.53;;;6.68;66.03
63194;BME280;49289;51.670;5.624;2023-12-04T06:02:38;101088.88;;;6.82;65.55
63194;BME280;49289;51.670;5.624;2023-12-04T06:04:25;101117.27;;;6.69;64.98
63194;BME280;49289;51.670;5.624;2023-12-04T06:06:12;101112.53;;;6.70;66.19
63194;BME280;49289;51.670;5.624;2023-12-04T06:07:59;101093.82;;;6.37;65.57
63194;BME280;49289;51.670;5.624;2023-12-04T06:09:46;101111.55;;;6.27;66.78
63194;BME280;49289;51.670;5.624;2023-12-04T06:11:34;101111.14;;;6.31;66.03
63194;BME280;49289;51.670;5.624;2023-12-04T06:13:21;101116.18;;;6.63;66.95
63194;BME280;49289;51.670;5.624;2023-12-04T06:15:08;101089.05;;;6.69;66.56
63194;BME280;49289;51.670;5.624;2023-12-04T06:16:55;101109.06;;;6.86;65.26
63194;BME280;49289;51.670;5.624;2023-12-04T06:18:43;101106.88;;;6.73;65.26
63194;BME280;49289;51.670;5.624;2023-12-04T06:20:29;101103.22;;;6.59;64.72
63194;BME280;49289;51.670;5.624;2023-12-04T06:22:17;101069.98;;;6.91;64.29
63194;BME280;49289;51.670;5.624;2023-12-04T06:24:05;101063.39;;;7.06;64.15
63194;BME280;49289;51.670;5.624;2023-12-04T06:25:52;101063.07;;;6.94;64.22
63194;BME280;49289;51.670;5.624;2023-12-04T06:27:40;101086.12;;;7.02;63.91
63194;BME280;49289;51.670;5.624;2023-12-04T06:29:28;101065.26;;;6.72;64.20
63194;BME280;49289;51.670;5.624;2023-12-04T06:31:17;101082.30;;;7.36;63.22
63194;BME280;49289;51.670;5.624;2023-12-04T06:33:05;101058.16;;;6.76;63.53
63194;BME280;49289;51.670;5.624;2023-12-04T06:34:53;101081.30;;;7.01;63.64
63194;BME280;49289;51.670;5.624;2023-12-04T06:36:40;101062.73;;;7.33;63.55
63194;BME280;49289;51.670;5.624;2023-12-04T06:38:27;101047.79;;;7.10;63.24
63194;BME280;49289;51.670;5.624;2023-12-04T06:40:15;101055.99;;;7.31;62.98
63194;BME280;49289;51.670;5.624;2023-12-04T06:42:03;101029.86;;;7.51;62.95
63194;BME280;49289;51.670;5.624;2023-12-04T06:43:50;101045.97;;;7.64;62.62
63194;BME280;49289;51.670;5.624;2023-12-04T06:45:38;101037.91;;;7.67;62.97
63194;BME280;49289;51.670;5.624;2023-12-04T06:47:26;101033.40;;;7.18;63.09
63194;BME280;49289;51.670;5.624;2023-12-04T06:49:13;101006.77;;;6.91;63.27
63194;BME280;49289;51.670;5.624;2023-12-04T06:51:00;101026.35;;;6.81;63.28
63194;BME280;49289;51.670;5.624;2023-12-04T06:52:47;101027.02;;;7.07;62.84
63194;BME280;49289;51.670;5.624;2023-12-04T06:54:34;101030.98;;;7.19;62.61
63194;BME280;49289;51.670;5.624;2023-12-04T06:56:21;101000.51;;;7.13;62.60
63194;BME280;49289;51.670;5.624;2023-12-04T06:58:08;101022.44;;;7.33;62.50
63194;BME280;49289;51.670;5.624;2023-12-04T06:59:55;101021.52;;;7.33;62.47
63194;BME280;49289;51.670;5.624;2023-12-04T07:01:42;101017.32;;;7.64;62.62
63194;BME280;49289;51.670;5.624;2023-12-04T07:03:29;101008.33;;;7.65;62.36
63194;BME280;49289;51.670;5.624;2023-12-04T07:05:17;101009.08;;;7.30;62.37
63194;BME280;49289;51.670;5.624;2023-12-04T07:07:04;101003.65;;;7.12;61.92
63194;BME280;49289;51.670;5.624;2023-12-04T07:08:51;100980.38;;;7.41;61.74
63194;BME280;49289;51.670;5.624;2023-12-04T07:10:38;101008.95;;;6.82;61.62
63194;BME280;49289;51.670;5.624;2023-12-04T07:12:25;101007.05;;;6.60;62.26
63194;BME280;49289;51.670;5.624;2023-12-04T07:14:12;100970.47;;;6.77;62.82
63194;BME280;49289;51.670;5.624;2023-12-04T07:15:58;100988.62;;;6.93;62.40
63194;BME280;49289;51.670;5.624;2023-12-04T07:17:45;100991.38;;;6.56;62.35
63194;BME280;49289;51.670;5.624;2023-12-04T07:19:32;100959.28;;;6.90;62.90
63194;BME280;49289;51.670;5.624;2023-12-04T07:21:20;100961.33;;;6.44;62.70
63194;BME280;49289;51.670;5.624;2023-12-04T07:23:07;100994.71;;;6.66;62.30
63194;BME280;49289;51.670;5.624;2023-12-04T07:24:54;101003.50;;;7.14;62.39
63194;BME280;49289;51.670;5.624;2023-12-04T07:26:41;101012.48;;;7.51;61.64
63194;BME280;49289;51.670;5.624;2023-12-04T07:28:28;101020.81;;;6.90;61.03
63194;BME280;49289;51.670;5.624;2023-12-04T07:30:16;101018.00;;;7.13;61.46
63194;BME280;49289;51.670;5.624;2023-12-04T07:32:03;101019.84;;;7.40;60.95
63194;BME280;49289;51.670;5.624;2023-12-04T07:33:50;100995.27;;;7.31;60.49
63194;BME280;49289;51.670;5.624;2023-12-04T07:35:37;101001.74;;;7.33;60.23
63194;BME280;49289;51.670;5.624;2023-12-04T07:37:24;100959.47;;;6.83;60.32
63194;BME280;49289;51.670;5.624;2023-12-04T07:39:11;101016.25;;;7.35;60.67
63194;BME280;49289;51.670;5.624;2023-12-04T07:40:58;101013.44;;;7.32;60.25
63194;BME280;49289;51.670;5.624;2023-12-04T07:42:45;101018.45;;;7.62;60.06
63194;BME280;49289;51.670;5.624;2023-12-04T07:44:32;100991.69;;;7.32;59.67
63194;BME280;49289;51.670;5.624;2023-12-04T07:46:19;101010.98;;;7.40;60.21
63194;BME280;49289;51.670;5.624;2023-12-04T07:48:06;101012.91;;;7.10;60.21
63194;BME280;49289;51.670;5.624;2023-12-04T07:49:53;101010.33;;;7.09;59.81
63194;BME280;49289;51.670;5.624;2023-12-04T07:51:40;101005.89;;;7.29;60.16
63194;BME280;49289;51.670;5.624;2023-12-04T07:53:27;100996.37;;;6.55;60.73
63194;BME280;49289;51.670;5.624;2023-12-04T07:55:14;101013.11;;;7.09;60.34
63194;BME280;49289;51.670;5.624;2023-12-04T07:57:01;100989.83;;;6.89;60.71
63194;BME280;49289;51.670;5.624;2023-12-04T07:58:48;101011.59;;;7.23;60.45
63194;BME280;49289;51.670;5.624;2023-12-04T08:00:35;101009.47;;;7.31;60.18
63194;BME280;49289;51.670;5.624;2023-12-04T08:02:22;101011.54;;;7.40;59.84
63194;BME280;49289;51.670;5.624;2023-12-04T08:04:09;101010.56;;;7.17;59.66
63194;BME280;49289;51.670;5.624;2023-12-04T08:05:56;101000.73;;;7.51;60.12
63194;BME280;49289;51.670;5.624;2023-12-04T08:07:43;101009.45;;;7.46;59.26
63194;BME280;49289;51.670;5.624;2023-12-04T08:09:30;101004.91;;;7.10;58.80
63194;BME280;49289;51.670;5.624;2023-12-04T08:11:17;101008.25;;;6.60;59.94
63194;BME280;49289;51.670;5.624;2023-12-04T08:13:04;100981.88;;;6.87;60.34
63194;BME280;49289;51.670;5.624;2023-12-04T08:14:51;100982.16;;;7.53;60.08
63194;BME280;49289;51.670;5.624;2023-12-04T08:16:38;100994.47;;;7.36;60.43
63194;BME280;49289;51.670;5.624;2023-12-04T08:18:25;100966.03;;;7.10;59.43
63194;BME280;49289;51.670;5.624;2023-12-04T08:20:12;100961.88;;;7.26;59.49
63194;BME280;49289;51.670;5.624;2023-12-04T08:21:59;100962.41;;;7.52;59.63
63194;BME280;49289;51.670;5.624;2023-12-04T08:23:47;100980.49;;;7.53;59.16
63194;BME280;49289;51.670;5.624;2023-12-04T08:25:34;100952.99;;;7.26;59.03
63194;BME280;49289;51.670;5.624;2023-12-04T08:27:21;100961.31;;;7.12;58.94
63194;BME280;49289;51.670;5.624;2023-12-04T08:29:08;100984.98;;;7.23;59.98
63194;BME280;49289;51.670;5.624;2023-12-04T08:30:55;100980.94;;;7.19;60.22
63194;BME280;49289;51.670;5.624;2023-12-04T08:32:42;100958.50;;;7.27;58.90
63194;BME280;49289;51.670;5.624;2023-12-04T08:34:29;100980.05;;;7.30;58.42
63194;BME280;49289;51.670;5.624;2023-12-04T08:36:17;100947.61;;;7.45;58.72
63194;BME280;49289;51.670;5.624;2023-12-04T08:38:04;100951.69;;;7.50;58.38
63194;BME280;49289;51.670;5.624;2023-12-04T08:39:51;100977.66;;;7.10;57.68
63194;BME280;49289;51.670;5.624;2023-12-04T08:41:38;100945.65;;;7.12;58.11
63194;BME280;49289;51.670;5.624;2023-12-04T08:43:25;100969.56;;;7.61;58.27
63194;BME280;49289;51.670;5.624;2023-12-04T08:45:12;100965.21;;;7.58;58.51
63194;BME280;49289;51.670;5.624;2023-12-04T08:46:59;100963.98;;;7.67;58.03
63194;BME280;49289;51.670;5.624;2023-12-04T08:48:46;100947.08;;;7.55;58.40
63194;BME280;49289;51.670;5.624;2023-12-04T08:50:34;100936.14;;;7.64;58.03
63194;BME280;49289;51.670;5.624;2023-12-04T08:52:20;100954.81;;;7.47;58.01
63194;BME280;49289;51.670;5.624;2023-12-04T08:54:07;100930.82;;;7.02;58.13
63194;BME280;49289;51.670;5.624;2023-12-04T08:55:54;100946.74;;;7.31;58.93
63194;BME280;49289;51.670;5.624;2023-12-04T08:57:41;100927.95;;;7.27;58.56
63194;BME280;49289;51.670;5.624;2023-12-04T08:59:28;100943.83;;;7.32;58.14
63194;BME280;49289;51.670;5.624;2023-12-04T09:01:15;100919.33;;;7.61;58.64
63194;BME280;49289;51.670;5.624;2023-12-04T09:03:02;100941.11;;;7.64;57.58
63194;BME280;49289;51.670;5.624;2023-12-04T09:04:49;100940.65;;;7.37;57.09
63194;BME280;49289;51.670;5.624;2023-12-04T09:06:36;100913.27;;;7.05;57.23
63194;BME280;49289;51.670;5.624;2023-12-04T09:08:14;100914.73;;;6.86;58.43
63194;BME280;49289;51.670;5.624;2023-12-04T09:10:02;100903.05;;;7.36;58.15
63194;BME280;49289;51.670;5.624;2023-12-04T09:11:49;100905.61;;;7.28;58.33
63194;BME280;49289;51.670;5.624;2023-12-04T09:13:36;100928.37;;;7.10;58.37
63194;BME280;49289;51.670;5.624;2023-12-04T09:15:23;100923.03;;;7.35;58.58
63194;BME280;49289;51.670;5.624;2023-12-04T09:17:10;100924.50;;;7.48;58.64
63194;BME280;49289;51.670;5.624;2023-12-04T09:18:57;100924.62;;;7.64;58.22
63194;BME280;49289;51.670;5.624;2023-12-04T09:20:44;100922.58;;;7.31;58.02
63194;BME280;49289;51.670;5.624;2023-12-04T09:22:31;100885.12;;;7.24;58.22
63194;BME280;49289;51.670;5.624;2023-12-04T09:24:18;100898.05;;;7.13;58.53
63194;BME280;49289;51.670;5.624;2023-12-04T09:26:05;100896.20;;;7.37;58.44